Time;durP1;ratioP1;P1;durP2;ratioP2;P2;SDS_P1;SDS_P2;PMS_P1;PMS_P2;Temp;Humidity;BMP_temperature;BMP_pressure;BME280_temperature;BME280_humidity;BME280_pressure;Samples;Min_cycle;Max_cycle;Signal;HPM_P1;HPM_P2
2023/10/06 00:00:54;;;;;;;;;;;20.10;74.20;;;;;;5113766;28;19908;-69
2023/10/06 00:03:21;;;;;;;;;;;20.10;74.10;;;;;;5113738;28;19968;-70
2023/10/06 00:05:53;;;;;;;;;;;20.10;74.30;;;;;;5113614;28;19908;-70
2023/10/06 00:08:54;;;;;;;;;;;20.20;74.30;;;;;;5113595;28;19916;-70
2023/10/06 00:11:15;;;;;;;;;;;20.40;74.10;;;;;;5110560;28;19915;-71
2023/10/06 00:13:52;;;;;;;;;;;20.60;73.90;;;;;;5113782;28;20333;-69
2023/10/06 00:16:19;;;;;;;;;;;20.90;73.80;;;;;;5113579;28;19907;-69
2023/10/06 00:18:47;;;;;;;;;;;21.10;73.30;;;;;;5095285;28;19915;-68
2023/10/06 00:21:21;;;;;;;;;;;21.40;73.00;;;;;;5113414;28;19915;-69
2023/10/06 00:23:48;;;;;;;;;;;21.70;71.80;;;;;;5113593;28;19914;-70
2023/10/06 00:26:16;;;;;;;;;;;22.10;70.30;;;;;;5113455;28;19908;-69
2023/10/06 00:28:46;;;;;;;;;;;22.20;70.40;;;;;;5113422;28;19916;-68
2023/10/06 00:31:13;;;;;;;;;;;22.40;69.20;;;;;;5113492;28;20283;-71
2023/10/06 00:33:42;;;;;;;;;;;22.60;68.20;;;;;;5113366;28;20384;-70
2023/10/06 00:36:14;;;;;;;;;;;22.70;68.30;;;;;;5113168;28;19998;-68
2023/10/06 00:38:51;;;;;;;;;;;22.80;67.60;;;;;;5113299;28;19920;-68
2023/10/06 00:41:20;;;;;;;;;;;22.90;66.50;;;;;;5096700;28;19919;-68
2023/10/06 00:43:47;;;;;;;;;;;23.00;66.80;;;;;;5113563;28;20006;-67
2023/10/06 00:46:14;;;;;;;;;;;23.30;66.00;;;;;;5113488;28;19908;-70
2023/10/06 00:48:42;;;;;;;;;;;23.40;65.50;;;;;;5112999;28;19924;-69
2023/10/06 00:51:28;;;;;;;;;;;23.10;64.90;;;;;;5112044;28;20311;-70
2023/10/06 00:53:58;;;;;;;;;;;23.10;64.70;;;;;;5113066;28;20019;-69
2023/10/06 00:56:27;;;;;;;;;;;23.10;64.70;;;;;;5113211;28;19914;-70
2023/10/06 00:58:54;;;;;;;;;;;23.30;64.80;;;;;;5113045;28;19915;-70
2023/10/06 01:01:21;;;;;;;;;;;23.40;63.80;;;;;;5113268;28;19908;-69
2023/10/06 01:04:00;;;;;;;;;;;23.50;64.30;;;;;;5112931;28;19912;-69
2023/10/06 01:06:33;;;;;;;;;;;23.50;64.60;;;;;;5113219;28;20271;-71
2023/10/06 01:09:17;;;;;;;;;;;23.70;65.10;;;;;;5112994;28;20330;-69
2023/10/06 01:11:47;;;;;;;;;;;23.80;65.40;;;;;;5113115;28;20365;-69
2023/10/06 01:14:26;;;;;;;;;;;23.90;67.10;;;;;;5113235;28;19908;-69
2023/10/06 01:17:04;;;;;;;;;;;24.10;69.70;;;;;;5113043;28;19915;-69
2023/10/06 01:19:35;;;;;;;;;;;24.20;69.40;;;;;;5123087;28;20360;-70
2023/10/06 01:22:19;;;;;;;;;;;24.00;69.90;;;;;;5114328;28;19913;-70
2023/10/06 01:24:46;;;;;;;;;;;24.00;67.70;;;;;;5133526;28;19957;-68
2023/10/06 01:27:13;;;;;;;;;;;23.90;67.10;;;;;;5133216;28;20031;-72
2023/10/06 01:29:42;;;;;;;;;;;24.00;66.60;;;;;;5133379;28;19968;-68
2023/10/06 01:32:09;;;;;;;;;;;24.20;65.30;;;;;;5133690;28;19912;-72
2023/10/06 01:34:39;;;;;;;;;;;24.30;64.70;;;;;;5133623;28;19907;-71
2023/10/06 01:37:12;;;;;;;;;;;24.30;63.60;;;;;;5133062;28;19942;-71
2023/10/06 01:39:40;;;;;;;;;;;24.40;64.20;;;;;;5133445;28;19911;-71
2023/10/06 01:42:07;;;;;;;;;;;24.60;63.70;;;;;;5133411;28;19907;-72
2023/10/06 01:44:37;;;;;;;;;;;24.50;63.30;;;;;;5133454;28;20002;-70
2023/10/06 01:47:07;;;;;;;;;;;24.00;64.80;;;;;;5133053;28;19911;-70
2023/10/06 01:49:34;;;;;;;;;;;23.70;66.60;;;;;;5133320;28;19927;-67
2023/10/06 01:52:08;;;;;;;;;;;23.30;67.00;;;;;;5117475;27;19923;-70
2023/10/06 01:54:34;;;;;;;;;;;23.00;68.20;;;;;;5136948;27;19914;-69
2023/10/06 01:57:06;;;;;;;;;;;22.70;69.90;;;;;;5137233;27;19908;-68
2023/10/06 01:59:33;;;;;;;;;;;22.60;69.30;;;;;;5136798;27;19918;-70
2023/10/06 02:02:07;;;;;;;;;;;22.30;69.90;;;;;;5136839;27;19907;-68
2023/10/06 02:04:39;;;;;;;;;;;22.30;70.30;;;;;;5136621;27;19930;-67
2023/10/06 02:07:10;;;;;;;;;;;22.40;72.20;;;;;;5136739;27;20347;-70
2023/10/06 02:09:37;;;;;;;;;;;22.80;71.20;;;;;;5136722;27;20010;-68
2023/10/06 02:12:05;;;;;;;;;;;23.30;71.10;;;;;;5136437;27;19907;-68
2023/10/06 02:14:31;;;;;;;;;;;23.50;69.60;;;;;;5136495;27;20049;-69
2023/10/06 02:17:04;;;;;;;;;;;23.70;70.30;;;;;;5136665;27;20419;-70
2023/10/06 02:19:32;;;;;;;;;;;23.70;71.30;;;;;;5136339;27;19915;-67
2023/10/06 02:21:59;;;;;;;;;;;23.40;71.20;;;;;;5136537;27;19903;-70
2023/10/06 02:24:26;;;;;;;;;;;23.10;72.70;;;;;;5136400;27;19907;-72
2023/10/06 02:27:01;;;;;;;;;;;22.90;74.30;;;;;;5136426;27;19964;-69
2023/10/06 02:29:28;;;;;;;;;;;22.80;75.40;;;;;;5136418;27;19920;-72
2023/10/06 02:32:03;;;;;;;;;;;22.40;74.10;;;;;;5136580;27;19930;-68
2023/10/06 02:34:31;;;;;;;;;;;22.00;74.20;;;;;;5136086;27;19911;-70
2023/10/06 02:37:00;;;;;;;;;;;21.90;74.90;;;;;;5136100;27;19954;-69
2023/10/06 02:39:28;;;;;;;;;;;21.60;74.90;;;;;;5136242;27;19908;-69
2023/10/06 02:41:57;;;;;;;;;;;21.50;74.80;;;;;;5136138;27;19907;-68
2023/10/06 02:44:24;;;;;;;;;;;21.20;75.40;;;;;;5136162;27;20348;-69
2023/10/06 02:46:52;;;;;;;;;;;21.00;76.10;;;;;;5117393;27;19927;-67
2023/10/06 02:49:47;;;;;;;;;;;20.80;77.30;;;;;;5135973;27;19923;-69
2023/10/06 02:52:13;;;;;;;;;;;20.70;77.70;;;;;;5135546;27;19912;-69
2023/10/06 02:55:13;;;;;;;;;;;20.70;76.80;;;;;;5136045;27;19950;-69
2023/10/06 02:57:36;;;;;;;;;;;20.60;77.30;;;;;;5132638;27;20022;-68
2023/10/06 03:00:50;;;;;;;;;;;20.60;78.20;;;;;;5135606;27;19947;-68
2023/10/06 03:03:27;;;;;;;;;;;20.70;77.80;;;;;;5127777;27;19922;-71
2023/10/06 03:05:49;;;;;;;;;;;21.10;76.50;;;;;;5132465;27;19952;-71
2023/10/06 03:08:23;;;;;;;;;;;21.60;74.90;;;;;;5135498;27;19916;-69
2023/10/06 03:10:50;;;;;;;;;;;22.30;73.80;;;;;;5135840;27;19918;-69
2023/10/06 03:13:24;;;;;;;;;;;23.60;72.00;;;;;;5135237;27;19938;-69
2023/10/06 03:15:51;;;;;;;;;;;24.90;70.20;;;;;;5135801;27;19911;-71
2023/10/06 03:18:18;;;;;;;;;;;26.50;67.40;;;;;;5135509;27;19914;-70
2023/10/06 03:20:48;;;;;;;;;;;26.60;66.40;;;;;;5135363;27;19959;-70
2023/10/06 03:25:56;;;;;;;;;;;28.50;67.20;;;;;;5135386;27;20388;-70
2023/10/06 03:28:32;;;;;;;;;;;30.20;66.70;;;;;;5135084;27;19915;-71
2023/10/06 03:31:05;;;;;;;;;;;30.80;66.00;;;;;;5116760;27;19915;-68
2023/10/06 03:33:32;;;;;;;;;;;31.10;65.30;;;;;;5134658;27;19947;-69
2023/10/06 03:35:58;;;;;;;;;;;30.50;66.00;;;;;;5116767;27;20369;-69
2023/10/06 03:46:08;;;;;;;;;;;27.40;71.00;;;;;;5134921;27;19908;-69
2023/10/06 03:48:36;;;;;;;;;;;26.30;72.60;;;;;;5134612;27;19919;-68
2023/10/06 03:51:04;;;;;;;;;;;25.00;75.30;;;;;;5134930;27;19907;-69
2023/10/06 03:53:30;;;;;;;;;;;23.90;78.60;;;;;;5134806;27;19919;-69
2023/10/06 03:55:57;;;;;;;;;;;23.10;80.20;;;;;;5134776;27;20419;-71
2023/10/06 03:58:31;;;;;;;;;;;22.40;82.00;;;;;;5133732;27;19959;-72
2023/10/06 04:01:07;;;;;;;;;;;21.80;84.60;;;;;;5134723;27;19907;-69
2023/10/06 04:03:34;;;;;;;;;;;21.40;85.40;;;;;;5134465;27;19915;-70
2023/10/06 04:06:04;;;;;;;;;;;21.20;86.90;;;;;;5134524;27;19912;-71
2023/10/06 04:08:31;;;;;;;;;;;20.90;88.50;;;;;;5115953;27;19915;-69
2023/10/06 04:10:58;;;;;;;;;;;20.70;89.90;;;;;;5134424;27;19907;-67
2023/10/06 04:13:28;;;;;;;;;;;20.40;89.10;;;;;;5134014;27;19911;-68
2023/10/06 04:15:57;;;;;;;;;;;20.20;90.60;;;;;;5135037;27;20327;-69
2023/10/06 04:18:24;;;;;;;;;;;20.20;91.00;;;;;;5134254;27;19915;-71
2023/10/06 04:20:52;;;;;;;;;;;20.00;90.80;;;;;;5133898;27;20267;-67
2023/10/06 04:23:22;;;;;;;;;;;19.80;91.20;;;;;;5134431;27;19907;-66
2023/10/06 04:25:54;;;;;;;;;;;19.80;91.60;;;;;;5134285;27;19949;-67
2023/10/06 04:28:22;;;;;;;;;;;19.70;91.30;;;;;;5134129;27;19976;-67
2023/10/06 04:30:50;;;;;;;;;;;19.60;91.50;;;;;;5134226;27;19914;-70
2023/10/06 04:33:18;;;;;;;;;;;19.60;91.40;;;;;;5115837;27;19907;-67
2023/10/06 04:36:28;;;;;;;;;;;19.50;91.70;;;;;;5133828;27;19914;-67
2023/10/06 04:38:40;;;;;;;;;;;19.50;91.90;;;;;;5125698;27;19908;-67
2023/10/06 04:41:10;;;;;;;;;;;19.40;92.10;;;;;;5134060;27;19908;-69
2023/10/06 04:43:37;;;;;;;;;;;19.40;92.20;;;;;;5133945;27;19908;-67
2023/10/06 04:46:06;;;;;;;;;;;19.20;92.60;;;;;;5133954;27;19954;-69
2023/10/06 04:48:35;;;;;;;;;;;19.20;93.20;;;;;;5133721;27;19930;-70
2023/10/06 04:51:06;;;;;;;;;;;19.10;92.80;;;;;;5133574;27;19908;-71
2023/10/06 04:53:36;;;;;;;;;;;19.10;92.50;;;;;;5133874;27;19908;-72
2023/10/06 04:56:07;;;;;;;;;;;19.10;93.80;;;;;;5134021;28;20443;-70
2023/10/06 04:58:36;;;;;;;;;;;19.10;95.30;;;;;;5133858;28;19907;-69
2023/10/06 05:01:07;;;;;;;;;;;19.00;95.20;;;;;;5133557;28;19959;-70
2023/10/06 05:03:45;;;;;;;;;;;19.00;98.00;;;;;;5115250;28;20431;-67
2023/10/06 05:06:16;;;;;;;;;;;19.10;99.90;;;;;;5133513;28;19950;-68
2023/10/06 05:08:46;;;;;;;;;;;19.20;99.90;;;;;;5115089;28;19915;-67
2023/10/06 05:11:17;;;;;;;;;;;19.00;99.90;;;;;;5133218;28;19990;-67
2023/10/06 05:13:43;;;;;;;;;;;19.00;99.90;;;;;;5133549;28;19994;-68
2023/10/06 05:16:13;;;;;;;;;;;18.90;99.90;;;;;;5133606;28;19971;-68
2023/10/06 05:18:39;;;;;;;;;;;18.80;99.90;;;;;;5133799;28;19907;-69
2023/10/06 05:21:11;;;;;;;;;;;18.60;99.90;;;;;;5133335;28;19907;-67
2023/10/06 05:23:38;;;;;;;;;;;18.50;99.90;;;;;;5133622;28;19951;-69
2023/10/06 05:26:10;;;;;;;;;;;18.40;99.90;;;;;;5137184;27;20348;-69
2023/10/06 05:28:37;;;;;;;;;;;18.20;99.90;;;;;;5137885;27;19918;-68
2023/10/06 05:31:06;;;;;;;;;;;18.20;99.90;;;;;;5137542;27;20383;-70
2023/10/06 05:33:33;;;;;;;;;;;18.20;99.90;;;;;;5137805;27;19919;-69
2023/10/06 05:36:09;;;;;;;;;;;18.20;99.90;;;;;;5137491;27;19912;-71
2023/10/06 05:38:37;;;;;;;;;;;18.20;99.90;;;;;;5137224;27;20402;-70
2023/10/06 05:41:08;;;;;;;;;;;18.10;99.90;;;;;;5137446;27;20274;-70
2023/10/06 05:43:34;;;;;;;;;;;18.10;99.90;;;;;;5137418;27;20364;-69
2023/10/06 05:46:02;;;;;;;;;;;18.00;99.90;;;;;;5137392;27;19943;-73
2023/10/06 05:48:30;;;;;;;;;;;17.90;99.90;;;;;;5136885;27;19969;-67
2023/10/06 05:51:04;;;;;;;;;;;17.80;99.90;;;;;;5118578;27;20022;-67
2023/10/06 05:53:38;;;;;;;;;;;17.80;99.90;;;;;;5137429;27;20407;-70
2023/10/06 05:56:08;;;;;;;;;;;17.90;99.90;;;;;;5137138;27;19915;-72
2023/10/06 05:58:37;;;;;;;;;;;17.90;99.90;;;;;;5137312;27;19914;-71
2023/10/06 06:01:10;;;;;;;;;;;17.80;99.90;;;;;;5136831;27;19907;-71
2023/10/06 06:03:44;;;;;;;;;;;17.80;99.90;;;;;;5136982;27;19915;-70
2023/10/06 06:06:14;;;;;;;;;;;17.70;99.90;;;;;;5136907;27;19910;-68
2023/10/06 06:08:47;;;;;;;;;;;17.60;99.90;;;;;;5136711;27;19922;-70
2023/10/06 06:11:14;;;;;;;;;;;17.70;99.90;;;;;;5136711;27;19930;-71
2023/10/06 06:13:42;;;;;;;;;;;17.60;99.90;;;;;;5136557;27;19907;-71
2023/10/06 06:16:08;;;;;;;;;;;17.50;99.90;;;;;;5136606;27;19908;-72
2023/10/06 06:18:37;;;;;;;;;;;17.50;99.90;;;;;;5137022;27;19958;-72
2023/10/06 06:21:05;;;;;;;;;;;17.60;99.90;;;;;;5136588;27;19915;-68
2023/10/06 06:23:35;;;;;;;;;;;17.50;99.90;;;;;;5136564;27;19963;-68
2023/10/06 06:26:02;;;;;;;;;;;17.60;99.90;;;;;;5136619;27;19907;-69
2023/10/06 06:28:28;;;;;;;;;;;17.60;99.90;;;;;;5136204;27;20006;-71
2023/10/06 06:30:55;;;;;;;;;;;17.70;99.90;;;;;;5136516;27;19907;-70
2023/10/06 06:33:25;;;;;;;;;;;17.80;99.90;;;;;;5136251;27;19947;-71
2023/10/06 06:35:52;;;;;;;;;;;17.70;99.90;;;;;;5136304;27;19908;-68
2023/10/06 06:38:19;;;;;;;;;;;17.80;99.90;;;;;;5117604;27;19949;-71
2023/10/06 06:40:45;;;;;;;;;;;17.70;99.90;;;;;;5136166;27;19908;-72
2023/10/06 06:43:12;;;;;;;;;;;17.70;99.90;;;;;;5135986;27;20292;-72
2023/10/06 06:45:43;;;;;;;;;;;17.70;99.90;;;;;;5136094;27;19907;-72
2023/10/06 06:48:13;;;;;;;;;;;17.60;99.90;;;;;;5135899;27;19963;-70
2023/10/06 06:50:42;;;;;;;;;;;17.60;99.90;;;;;;5135847;27;19907;-70
2023/10/06 06:53:09;;;;;;;;;;;17.50;99.90;;;;;;5136292;27;19914;-69
2023/10/06 06:55:36;;;;;;;;;;;17.60;99.90;;;;;;5117501;27;19960;-70
2023/10/06 06:58:10;;;;;;;;;;;17.60;99.90;;;;;;5135864;27;19946;-68
2023/10/06 07:00:39;;;;;;;;;;;17.60;99.90;;;;;;5135605;27;19907;-69
2023/10/06 07:03:06;;;;;;;;;;;17.70;99.90;;;;;;5135698;27;20296;-69
2023/10/06 07:05:35;;;;;;;;;;;17.60;99.90;;;;;;5135599;27;20379;-70
2023/10/06 07:08:04;;;;;;;;;;;17.60;99.90;;;;;;5117181;27;19919;-69
2023/10/06 07:10:32;;;;;;;;;;;17.60;99.90;;;;;;5135539;27;19911;-68
2023/10/06 07:12:58;;;;;;;;;;;17.60;99.90;;;;;;5135546;27;19907;-68
2023/10/06 07:15:29;;;;;;;;;;;17.50;99.90;;;;;;5135602;27;19907;-69
2023/10/06 07:17:56;;;;;;;;;;;17.50;99.90;;;;;;5135327;27;19908;-70
2023/10/06 07:20:26;;;;;;;;;;;17.40;99.90;;;;;;5135317;27;20256;-69
2023/10/06 07:22:53;;;;;;;;;;;17.40;99.90;;;;;;5135508;27;20002;-66
2023/10/06 07:25:20;;;;;;;;;;;17.30;99.90;;;;;;5135106;27;19907;-68
2023/10/06 07:27:47;;;;;;;;;;;17.30;99.90;;;;;;5135301;27;19911;-70
2023/10/06 07:30:22;;;;;;;;;;;17.40;99.90;;;;;;5135230;27;19914;-66
2023/10/06 07:32:50;;;;;;;;;;;17.40;99.90;;;;;;5135290;27;19907;-69
2023/10/06 07:35:18;;;;;;;;;;;17.40;99.90;;;;;;5135234;27;20520;-69
2023/10/06 07:37:47;;;;;;;;;;;17.30;99.90;;;;;;5134897;27;19908;-70
2023/10/06 07:40:15;;;;;;;;;;;17.30;99.90;;;;;;5134860;27;19938;-69
2023/10/06 07:42:47;;;;;;;;;;;17.30;99.90;;;;;;5135029;27;19907;-71
2023/10/06 07:45:13;;;;;;;;;;;17.20;99.90;;;;;;5135077;27;19907;-71
2023/10/06 07:47:42;;;;;;;;;;;17.20;99.90;;;;;;5134959;27;19919;-69
2023/10/06 07:50:09;;;;;;;;;;;17.10;99.90;;;;;;5133757;27;19923;-68
2023/10/06 07:52:36;;;;;;;;;;;17.10;99.90;;;;;;5134540;27;20355;-68
2023/10/06 07:55:09;;;;;;;;;;;17.10;99.90;;;;;;5116212;27;20001;-69
2023/10/06 07:57:45;;;;;;;;;;;17.10;99.90;;;;;;5134619;27;19912;-68
2023/10/06 08:00:18;;;;;;;;;;;17.10;99.90;;;;;;5134775;27;20343;-70
2023/10/06 08:02:45;;;;;;;;;;;17.00;99.90;;;;;;5134699;27;19903;-70
2023/10/06 08:05:13;;;;;;;;;;;17.00;99.90;;;;;;5134603;27;19914;-67
2023/10/06 08:07:42;;;;;;;;;;;17.00;99.90;;;;;;5134757;27;19907;-71
2023/10/06 08:10:15;;;;;;;;;;;17.10;99.90;;;;;;5134403;27;19916;-70
2023/10/06 08:12:43;;;;;;;;;;;17.10;99.90;;;;;;5134440;27;19919;-69
2023/10/06 08:15:16;;;;;;;;;;;17.00;99.90;;;;;;5134276;27;19951;-70
2023/10/06 08:17:47;;;;;;;;;;;17.00;99.90;;;;;;5134366;27;20384;-70
2023/10/06 08:20:15;;;;;;;;;;;17.00;99.90;;;;;;5134384;27;19907;-68
2023/10/06 08:22:45;;;;;;;;;;;16.90;99.90;;;;;;5134613;27;19946;-69
2023/10/06 08:25:13;;;;;;;;;;;16.80;99.90;;;;;;5134027;27;20371;-72
2023/10/06 08:27:44;;;;;;;;;;;16.80;99.90;;;;;;5134385;27;19908;-70
2023/10/06 08:30:18;;;;;;;;;;;16.70;99.90;;;;;;5133951;27;20067;-69
2023/10/06 08:32:52;;;;;;;;;;;16.80;99.90;;;;;;5134443;27;19908;-68
2023/10/06 08:35:19;;;;;;;;;;;16.80;99.90;;;;;;5134094;27;20280;-72
2023/10/06 08:37:47;;;;;;;;;;;16.80;99.90;;;;;;5134051;27;19908;-68
2023/10/06 08:40:22;;;;;;;;;;;16.80;99.90;;;;;;5134217;27;19907;-72
2023/10/06 08:42:56;;;;;;;;;;;16.90;99.90;;;;;;5133880;27;19913;-70
2023/10/06 08:45:27;;;;;;;;;;;16.90;99.90;;;;;;5133960;27;19908;-69
2023/10/06 08:47:58;;;;;;;;;;;16.90;99.90;;;;;;5133623;27;20035;-68
2023/10/06 08:50:29;;;;;;;;;;;16.90;99.90;;;;;;5133690;27;20010;-72
2023/10/06 08:52:57;;;;;;;;;;;16.90;99.90;;;;;;5133780;27;19956;-68
2023/10/06 08:55:24;;;;;;;;;;;16.90;99.90;;;;;;5115455;28;20386;-68
2023/10/06 08:57:53;;;;;;;;;;;16.90;99.90;;;;;;5133608;28;20275;-69
2023/10/06 09:00:23;;;;;;;;;;;16.90;99.90;;;;;;5115155;28;19911;-70
2023/10/06 09:02:52;;;;;;;;;;;16.90;99.90;;;;;;5133851;28;19907;-68
2023/10/06 09:05:21;;;;;;;;;;;16.90;99.90;;;;;;5133844;28;19914;-69
2023/10/06 09:08:04;;;;;;;;;;;16.90;99.90;;;;;;5133828;28;19907;-72
2023/10/06 09:10:32;;;;;;;;;;;16.90;99.90;;;;;;5133428;28;20006;-67
2023/10/06 09:13:05;;;;;;;;;;;17.00;99.90;;;;;;5115124;28;19907;-68
2023/10/06 09:15:35;;;;;;;;;;;16.90;99.90;;;;;;5133903;28;19915;-69
2023/10/06 09:18:19;;;;;;;;;;;16.90;99.90;;;;;;5119679;28;19914;-70
2023/10/06 09:20:50;;;;;;;;;;;16.90;99.90;;;;;;5135703;28;19922;-66
2023/10/06 09:23:31;;;;;;;;;;;16.90;99.90;;;;;;5133719;28;19990;-67
2023/10/06 09:25:58;;;;;;;;;;;16.90;99.90;;;;;;5133890;28;20015;-68
2023/10/06 09:28:26;;;;;;;;;;;17.00;99.90;;;;;;5133306;28;19934;-68
2023/10/06 09:31:01;;;;;;;;;;;17.00;99.70;;;;;;5133503;28;19915;-67
2023/10/06 09:33:29;;;;;;;;;;;17.00;99.40;;;;;;5133637;28;19946;-70
2023/10/06 09:36:11;;;;;;;;;;;16.90;98.80;;;;;;5133641;28;19908;-71
2023/10/06 09:38:38;;;;;;;;;;;17.00;98.80;;;;;;5133172;28;19915;-69
2023/10/06 09:41:07;;;;;;;;;;;16.90;98.30;;;;;;5133309;28;19908;-70
2023/10/06 09:43:35;;;;;;;;;;;16.90;97.80;;;;;;5133370;28;19952;-68
2023/10/06 09:46:13;;;;;;;;;;;16.90;97.90;;;;;;5133122;28;19907;-68
2023/10/06 09:48:43;;;;;;;;;;;17.00;98.20;;;;;;5133036;28;19923;-67
2023/10/06 09:51:12;;;;;;;;;;;16.90;98.00;;;;;;5133159;28;19915;-68
2023/10/06 09:53:40;;;;;;;;;;;17.00;97.40;;;;;;5133385;28;20275;-68
2023/10/06 09:56:09;;;;;;;;;;;16.90;96.80;;;;;;5114608;28;19913;-70
2023/10/06 09:58:38;;;;;;;;;;;16.90;96.30;;;;;;5133252;28;19914;-67
2023/10/06 10:01:06;;;;;;;;;;;16.90;95.80;;;;;;5132964;28;19908;-70
2023/10/06 10:03:37;;;;;;;;;;;16.90;95.60;;;;;;5133223;28;19959;-68
2023/10/06 10:06:04;;;;;;;;;;;17.00;95.80;;;;;;5133313;28;19998;-68
2023/10/06 10:08:35;;;;;;;;;;;16.90;95.90;;;;;;5133168;28;20006;-70
2023/10/06 10:11:05;;;;;;;;;;;16.90;95.90;;;;;;5133245;27;19913;-70
2023/10/06 10:13:38;;;;;;;;;;;16.90;95.70;;;;;;5118182;27;19915;-69
2023/10/06 10:16:09;;;;;;;;;;;16.90;95.10;;;;;;5136354;27;19911;-69
2023/10/06 10:18:38;;;;;;;;;;;16.90;94.90;;;;;;5136780;27;19907;-69
2023/10/06 10:21:08;;;;;;;;;;;16.90;94.90;;;;;;5136517;27;19943;-71
2023/10/06 10:23:40;;;;;;;;;;;16.90;95.00;;;;;;5136798;27;19915;-71
2023/10/06 10:26:22;;;;;;;;;;;16.90;94.80;;;;;;5118530;27;20295;-67
2023/10/06 10:29:07;;;;;;;;;;;16.80;94.70;;;;;;5136385;27;19958;-71
2023/10/06 10:31:37;;;;;;;;;;;16.90;94.70;;;;;;5117936;27;19915;-71
2023/10/06 10:34:07;;;;;;;;;;;16.90;94.90;;;;;;5136305;27;20039;-72
2023/10/06 10:36:35;;;;;;;;;;;16.80;94.70;;;;;;5136548;27;19907;-72
2023/10/06 10:39:09;;;;;;;;;;;16.80;94.70;;;;;;5135357;27;19965;-69
2023/10/06 10:41:40;;;;;;;;;;;16.80;94.80;;;;;;5136143;27;20010;-72
2023/10/06 10:44:15;;;;;;;;;;;16.90;94.30;;;;;;5136349;27;20297;-69
2023/10/06 10:46:47;;;;;;;;;;;16.90;93.90;;;;;;5136141;27;20007;-68
2023/10/06 10:49:18;;;;;;;;;;;16.90;94.20;;;;;;5117649;27;19923;-70
2023/10/06 10:51:49;;;;;;;;;;;16.80;94.00;;;;;;5136012;27;19959;-71
2023/10/06 10:54:36;;;;;;;;;;;16.90;94.00;;;;;;5135819;27;19972;-71
2023/10/06 10:57:06;;;;;;;;;;;16.90;94.10;;;;;;5135555;27;20378;-70
2023/10/06 10:59:51;;;;;;;;;;;16.90;94.50;;;;;;5117564;27;19914;-72
2023/10/06 11:02:19;;;;;;;;;;;16.90;94.50;;;;;;5135885;27;19998;-69
2023/10/06 11:04:48;;;;;;;;;;;16.90;94.80;;;;;;5135803;27;19907;-68
2023/10/06 11:07:16;;;;;;;;;;;16.80;95.30;;;;;;5135659;27;19914;-68
2023/10/06 11:09:47;;;;;;;;;;;16.80;95.80;;;;;;5117206;27;19926;-69
2023/10/06 11:12:17;;;;;;;;;;;16.80;96.10;;;;;;5135731;27;19907;-68
2023/10/06 11:14:43;;;;;;;;;;;16.70;96.20;;;;;;5135474;27;19908;-68
2023/10/06 11:17:11;;;;;;;;;;;16.60;97.30;;;;;;5135575;27;19908;-71
2023/10/06 11:19:39;;;;;;;;;;;16.50;98.50;;;;;;5135579;27;19907;-69
2023/10/06 11:22:09;;;;;;;;;;;16.50;99.10;;;;;;5135665;27;20271;-72
2023/10/06 11:24:36;;;;;;;;;;;16.40;99.50;;;;;;5135577;27;20291;-71
2023/10/06 11:27:24;;;;;;;;;;;16.40;99.90;;;;;;5135286;27;19907;-72
2023/10/06 11:29:57;;;;;;;;;;;16.30;99.90;;;;;;5135091;27;20411;-70
2023/10/06 11:32:24;;;;;;;;;;;16.30;99.90;;;;;;5135263;27;19995;-71
2023/10/06 11:34:51;;;;;;;;;;;16.30;99.90;;;;;;5135180;27;19907;-68
2023/10/06 11:37:22;;;;;;;;;;;16.10;99.90;;;;;;5135093;27;19943;-72
2023/10/06 11:39:53;;;;;;;;;;;16.10;99.90;;;;;;5134933;27;19917;-73
2023/10/06 11:42:23;;;;;;;;;;;16.00;99.90;;;;;;5135117;27;19914;-72
2023/10/06 11:44:53;;;;;;;;;;;15.90;99.90;;;;;;5135074;27;19908;-69
2023/10/06 11:47:23;;;;;;;;;;;15.90;99.90;;;;;;5134956;27;20006;-69
2023/10/06 11:49:56;;;;;;;;;;;15.90;99.90;;;;;;5134897;27;19926;-66
2023/10/06 11:52:23;;;;;;;;;;;15.90;99.90;;;;;;5134886;27;20010;-69
2023/10/06 11:54:51;;;;;;;;;;;15.80;99.90;;;;;;5134798;27;19907;-67
2023/10/06 11:57:19;;;;;;;;;;;15.80;99.90;;;;;;5134694;27;19907;-67
2023/10/06 11:59:49;;;;;;;;;;;15.80;99.90;;;;;;5135137;27;19957;-67
2023/10/06 12:02:16;;;;;;;;;;;15.90;99.90;;;;;;5134481;27;19952;-69
2023/10/06 12:04:43;;;;;;;;;;;15.90;99.90;;;;;;5134687;27;19921;-68
2023/10/06 12:07:23;;;;;;;;;;;15.90;99.90;;;;;;5135001;27;20275;-67
2023/10/06 12:09:52;;;;;;;;;;;15.90;99.90;;;;;;5133992;27;19916;-69
2023/10/06 12:12:18;;;;;;;;;;;15.90;99.90;;;;;;5134585;27;19912;-69
2023/10/06 12:14:45;;;;;;;;;;;15.80;99.90;;;;;;5134634;27;19907;-67
2023/10/06 12:17:14;;;;;;;;;;;15.80;99.90;;;;;;5134628;27;19908;-70
2023/10/06 12:19:45;;;;;;;;;;;15.70;99.90;;;;;;5134283;27;19950;-70
2023/10/06 12:22:12;;;;;;;;;;;15.80;99.90;;;;;;5134233;27;19910;-70
2023/10/06 12:24:41;;;;;;;;;;;15.80;99.90;;;;;;5134372;27;19914;-69
2023/10/06 12:27:09;;;;;;;;;;;15.80;99.90;;;;;;5134313;27;19904;-71
2023/10/06 12:29:36;;;;;;;;;;;15.80;99.90;;;;;;5134015;27;20013;-69
2023/10/06 12:32:03;;;;;;;;;;;15.70;99.90;;;;;;5134486;27;20026;-67
2023/10/06 12:34:31;;;;;;;;;;;15.80;99.90;;;;;;5134003;27;19908;-67
2023/10/06 12:37:02;;;;;;;;;;;15.80;99.90;;;;;;5134030;27;19914;-68
2023/10/06 12:39:35;;;;;;;;;;;15.70;99.90;;;;;;5133652;27;20020;-69
2023/10/06 12:42:03;;;;;;;;;;;15.70;99.90;;;;;;5134207;27;20383;-68
2023/10/06 12:44:30;;;;;;;;;;;15.70;99.90;;;;;;5133991;27;19911;-68
2023/10/06 12:47:03;;;;;;;;;;;15.70;99.90;;;;;;5134027;27;20436;-70
2023/10/06 12:49:30;;;;;;;;;;;15.80;99.90;;;;;;5133829;27;19919;-70
2023/10/06 12:51:59;;;;;;;;;;;15.70;99.90;;;;;;5115357;28;20387;-71
2023/10/06 12:54:26;;;;;;;;;;;15.70;99.90;;;;;;5133753;27;19998;-70
2023/10/06 12:56:53;;;;;;;;;;;15.70;99.90;;;;;;5133775;27;19914;-71
2023/10/06 12:59:19;;;;;;;;;;;15.70;99.90;;;;;;5115211;28;20287;-71
2023/10/06 13:01:49;;;;;;;;;;;15.70;99.90;;;;;;5133784;28;19915;-70
2023/10/06 13:04:15;;;;;;;;;;;15.70;99.90;;;;;;5117129;28;19947;-70
2023/10/06 13:06:42;;;;;;;;;;;15.70;99.90;;;;;;5124011;28;19976;-70
2023/10/06 13:09:17;;;;;;;;;;;15.70;99.90;;;;;;5118406;28;19922;-69
2023/10/06 13:11:43;;;;;;;;;;;15.80;99.90;;;;;;5134102;28;19908;-68
2023/10/06 13:14:10;;;;;;;;;;;15.70;99.90;;;;;;5127606;28;19908;-72
2023/10/06 13:16:37;;;;;;;;;;;15.70;99.90;;;;;;5125147;28;20365;-70
2023/10/06 13:19:04;;;;;;;;;;;15.60;99.90;;;;;;5127215;28;19912;-70
2023/10/06 13:21:30;;;;;;;;;;;15.80;99.90;;;;;;5115932;28;19993;-70
2023/10/06 13:23:58;;;;;;;;;;;15.70;99.90;;;;;;5124730;28;19963;-71
2023/10/06 13:26:24;;;;;;;;;;;15.80;99.90;;;;;;5124099;28;19908;-71
2023/10/06 13:28:53;;;;;;;;;;;15.80;99.90;;;;;;5124878;28;20291;-72
2023/10/06 13:31:20;;;;;;;;;;;15.80;99.90;;;;;;5116069;28;19931;-69
2023/10/06 13:33:47;;;;;;;;;;;15.80;99.90;;;;;;5089160;28;19911;-69
2023/10/06 13:36:15;;;;;;;;;;;15.90;99.90;;;;;;5125517;28;20322;-72
2023/10/06 13:38:42;;;;;;;;;;;15.90;99.90;;;;;;5123708;28;19907;-70
2023/10/06 13:41:08;;;;;;;;;;;15.80;99.90;;;;;;5117712;28;19931;-69
2023/10/06 13:43:35;;;;;;;;;;;15.80;99.90;;;;;;5121049;28;20285;-69
2023/10/06 13:46:02;;;;;;;;;;;15.80;99.90;;;;;;5112791;28;19911;-71
2023/10/06 13:48:31;;;;;;;;;;;15.80;99.90;;;;;;5115708;28;20014;-69
2023/10/06 13:51:02;;;;;;;;;;;15.80;99.90;;;;;;5116356;28;19947;-70
2023/10/06 13:53:29;;;;;;;;;;;15.80;99.90;;;;;;5116622;28;19915;-70
2023/10/06 13:55:56;;;;;;;;;;;15.80;99.90;;;;;;5116420;28;19908;-69
2023/10/06 13:58:26;;;;;;;;;;;15.80;99.90;;;;;;5116293;28;19915;-70
2023/10/06 14:00:55;;;;;;;;;;;15.80;99.90;;;;;;5116618;28;19998;-69
2023/10/06 14:03:23;;;;;;;;;;;15.70;99.90;;;;;;5116374;28;20368;-71
2023/10/06 14:05:52;;;;;;;;;;;15.80;99.90;;;;;;5116423;28;19908;-71
2023/10/06 14:08:20;;;;;;;;;;;15.70;99.90;;;;;;5116047;28;19923;-69
2023/10/06 14:10:51;;;;;;;;;;;15.70;99.90;;;;;;5116213;28;20280;-69
2023/10/06 14:13:23;;;;;;;;;;;15.50;99.90;;;;;;5116232;28;19914;-69
2023/10/06 14:15:54;;;;;;;;;;;15.50;99.90;;;;;;5116103;28;19908;-68
2023/10/06 14:18:25;;;;;;;;;;;15.50;99.90;;;;;;5116033;28;20295;-67
2023/10/06 14:20:53;;;;;;;;;;;15.40;99.90;;;;;;5115974;28;19908;-68
2023/10/06 14:23:24;;;;;;;;;;;15.30;99.90;;;;;;5116102;28;19912;-66
2023/10/06 14:25:56;;;;;;;;;;;15.30;99.90;;;;;;5116135;28;19908;-68
2023/10/06 14:28:23;;;;;;;;;;;15.20;99.90;;;;;;5115788;28;19998;-67
2023/10/06 14:30:53;;;;;;;;;;;15.20;99.90;;;;;;5115251;28;19908;-67
2023/10/06 14:33:23;;;;;;;;;;;15.20;99.90;;;;;;5115726;28;20373;-68
2023/10/06 14:46:37;;;;;;;;;;;15.20;99.90;;;;;;5115767;28;20110;-68
2023/10/06 14:49:05;;;;;;;;;;;15.10;99.90;;;;;;5115395;28;20372;-68
2023/10/06 14:51:35;;;;;;;;;;;15.10;99.90;;;;;;5115476;28;19907;-67
2023/10/06 14:54:02;;;;;;;;;;;15.00;99.90;;;;;;5115415;28;20368;-67